ARCT2: Red River, ARthur City

                                SHEF ID:       ARCT2     Red River at Arthur City, TX
STATION TYPE: Stream Gauge
Regulating: Stage = 27.00, Flow = 84609

PRECIP ELEVATION STAGE STAGE(2) RIV-FLOW BAT-LOAD
in ft ft ft cfs volt
Ccp-Rev Ccp-Rev Ccp-Rev Ccp-Rev Ccp-Rev Ccp-Rev
(America/Chicago)
04/26 00:00 0.03 ---- 6.49 ---- 4051 12.49
04/26 01:00 0.47 ---- 6.51 ---- 4085 12.49
04/26 02:00 0.01 ---- 6.77 ---- 4509 12.49
04/26 03:00 0.00 ---- 6.93 ---- 4779 12.49
04/26 04:00 0.00 ---- 7.11 ---- 5091 ----
04/26 05:00 0.00 ---- 7.34 ---- 5498 ----
04/26 06:00 0.03 ---- 7.54 ---- 5858 ----
04/26 07:00 0.01 ---- 7.90 ---- 6530 12.41
04/26 08:00 0.00 ---- 8.15 ---- 6983 12.57
04/26 09:00 0.00 ---- 8.49 ---- 7616 ----
04/26 10:00 0.00 ---- 8.73 ---- 8076 13.29
04/26 11:00 0.00 ---- 8.91 ---- 8428 ----
04/26 12:00 0.00 ---- 9.09 ---- 8785 13.60
04/26 13:00 0.00 ---- 9.21 ---- 9027 13.68
04/26 14:00 0.00 ---- 9.30 ---- 9210 13.53
04/26 15:00 0.00 ---- 9.34 ---- 9292 13.68
04/26 16:00 0.00 ---- 9.39 ---- 9395 13.53
04/26 17:00 0.00 ---- 9.45 ---- 9519 13.53
04/26 18:00 0.00 ---- 9.51 ---- 9643 13.37
04/26 19:00 0.00 ---- 9.55 ---- 9727 13.29
04/26 20:00 0.00 ---- 9.57 ---- 9769 13.05
04/26 21:00 0.00 ---- 9.58 ---- 9789 12.65
04/26 22:00 0.00 ---- 9.57 ---- 9769 12.57
04/26 23:00 0.00 ---- 9.55 ---- 9727 12.57
Data processed at Mon 27Apr2026 04:30 GMT

NOTICE: If you are parsing this page

Please convert to using our Data API. Starting early 2026 we will be migrating to: https://water.usace.army.mil with modern pages rendered in JavaScript. When this migration completes you will no longer be able to scrape this page! CWMSDataAPI (CDA)

Timeseries IDs (TSIDs)

TSIDs used from left to right in the data table
ARTH.Precip-Inc.Total.1Hour.1Hour.Ccp-Rev
ARTH.Stage.Inst.1Hour.0.Ccp-Rev
ARTH.Stage-Alt.Inst.1Hour.0.Ccp-Rev
ARTH.Flow.Inst.1Hour.0.Ccp-Rev
ARTH.Volt-Battery Load.Inst.1Hour.0.Ccp-Rev

                            

All information presented herein is the property of the government of the United States of America and may be revised or deleted at any time without prior notice. Dissemination of this information without the expressed written consent of the Public Affairs Office, Tulsa District U.S. Army Corps of Engineers is strictly prohibited. These data are gathered electronically and, as presented, have NOT undergone any form of quality control. These data are NOT guaranteed to be valid or correct.